Time;durP1;ratioP1;P1;durP2;ratioP2;P2;SDS_P1;SDS_P2;PMS_P1;PMS_P2;Temp;Humidity;BMP_temperature;BMP_pressure;BME280_temperature;BME280_humidity;BME280_pressure;Samples;Min_cycle;Max_cycle;Signal;HPM_P1;HPM_P2
2022/04/06 00:00:08;;;;;;;;;;;;;;;7.09;100.00;95200.59;1034539;28;19920;-73
2022/04/06 00:00:39;;;;;;;;;;;;;;;7.15;100.00;95196.97;1034547;28;19916;-71
2022/04/06 00:01:12;;;;;;;;;;;;;;;7.13;100.00;95196.44;1034560;28;20429;-71
2022/04/06 00:01:44;;;;;;;;;;;;;;;7.13;100.00;95193.03;1028885;28;19917;-72
2022/04/06 00:02:15;;;;;;;;;;;;;;;7.07;100.00;95192.22;1027821;28;19910;-72
2022/04/06 00:02:46;;;;;;;;;;;;;;;7.06;100.00;95193.25;1030496;28;19921;-72
2022/04/06 00:03:18;;;;;;;;;;;;;;;7.08;100.00;95196.41;1026992;28;20224;-73
2022/04/06 00:03:49;;;;;;;;;;;;;;;7.10;100.00;95194.31;1026569;28;19915;-72
2022/04/06 00:04:19;;;;;;;;;;;;;;;7.06;100.00;95193.25;1026402;28;19922;-74
2022/04/06 00:04:49;;;;;;;;;;;;;;;7.06;100.00;95188.06;1028691;28;20020;-71
2022/04/06 00:05:20;;;;;;;;;;;;;;;7.04;100.00;95190.13;1030538;28;20360;-71
2022/04/06 00:05:50;;;;;;;;;;;;;;;7.06;100.00;95188.81;1022367;29;19918;-71
2022/04/06 00:06:21;;;;;;;;;;;;;;;7.05;100.00;95192.50;1022531;29;19963;-71
2022/04/06 00:06:53;;;;;;;;;;;;;;;7.03;100.00;95191.94;1025625;28;19906;-72
2022/04/06 00:07:23;;;;;;;;;;;;;;;7.08;100.00;95191.19;1030877;28;19910;-72
2022/04/06 00:07:53;;;;;;;;;;;;;;;7.06;100.00;95190.66;1034461;28;19920;-72
2022/04/06 00:08:23;;;;;;;;;;;;;;;7.04;100.00;95188.31;1030735;28;19941;-70
2022/04/06 00:08:54;;;;;;;;;;;;;;;7.07;100.00;95195.59;1034142;28;19913;-71
2022/04/06 00:09:24;;;;;;;;;;;;;;;7.06;100.00;95193.25;1030661;28;20322;-72
2022/04/06 00:09:54;;;;;;;;;;;;;;;7.07;100.00;95187.00;1030532;28;19920;-70
2022/04/06 00:10:25;;;;;;;;;;;;;;;7.10;100.00;95186.50;1034401;28;19909;-71
2022/04/06 00:10:56;;;;;;;;;;;;;;;7.06;100.00;95188.06;1026575;28;19914;-71
2022/04/06 00:11:27;;;;;;;;;;;;;;;7.06;100.00;95186.22;1030638;28;19910;-72
2022/04/06 00:11:57;;;;;;;;;;;;;;;7.04;100.00;95190.94;1031262;28;19916;-71
2022/04/06 00:12:28;;;;;;;;;;;;;;;7.02;100.00;95185.16;1030258;28;19918;-72
2022/04/06 00:12:58;;;;;;;;;;;;;;;7.07;100.00;95187.78;1026355;28;19918;-70
2022/04/06 00:13:29;;;;;;;;;;;;;;;7.06;100.00;95185.44;1026457;28;19993;-71
2022/04/06 00:13:59;;;;;;;;;;;;;;;7.04;100.00;95185.72;1022548;28;20304;-72
2022/04/06 00:14:29;;;;;;;;;;;;;;;7.04;100.00;95179.69;1026003;28;20463;-70
2022/04/06 00:15:00;;;;;;;;;;;;;;;7.02;100.00;95190.38;1034227;28;19965;-71
2022/04/06 00:15:30;;;;;;;;;;;;;;;7.04;100.00;95187.50;1034392;28;19910;-71
2022/04/06 00:16:01;;;;;;;;;;;;;;;7.03;100.00;95185.94;1038860;28;19916;-71
2022/04/06 00:16:31;;;;;;;;;;;;;;;7.00;100.00;95183.84;1034597;28;19909;-70
2022/04/06 00:17:05;;;;;;;;;;;;;;;6.97;100.00;95190.34;1033691;28;19910;-71
2022/04/06 00:17:35;;;;;;;;;;;;;;;6.94;100.00;95190.88;1037236;28;20448;-70
2022/04/06 00:18:06;;;;;;;;;;;;;;;6.92;100.00;95181.72;1030575;28;19969;-72
2022/04/06 00:18:37;;;;;;;;;;;;;;;6.95;100.00;95192.44;1030552;28;19906;-73
2022/04/06 00:19:07;;;;;;;;;;;;;;;6.95;100.00;95189.03;1026832;28;20032;-71
2022/04/06 00:19:37;;;;;;;;;;;;;;;6.96;100.00;95188.78;1022512;28;19961;-72
2022/04/06 00:20:08;;;;;;;;;;;;;;;6.95;100.00;95189.03;1022642;28;19962;-73
2022/04/06 00:20:38;;;;;;;;;;;;;;;6.91;100.00;95180.13;1024178;28;20427;-71
2022/04/06 00:21:11;;;;;;;;;;;;;;;6.91;100.00;95193.16;1026423;28;19914;-72
2022/04/06 00:21:42;;;;;;;;;;;;;;;6.87;100.00;95189.50;1036895;28;19912;-72
2022/04/06 00:22:12;;;;;;;;;;;;;;;6.87;100.00;95194.72;1034259;28;19929;-71
2022/04/06 00:22:43;;;;;;;;;;;;;;;6.84;100.00;95191.59;1034504;28;19917;-72
2022/04/06 00:23:15;;;;;;;;;;;;;;;6.81;100.00;95192.09;1034457;28;19944;-71
2022/04/06 00:23:45;;;;;;;;;;;;;;;6.79;100.00;95188.94;1026805;28;19941;-70
2022/04/06 00:24:15;;;;;;;;;;;;;;;6.79;100.00;95188.94;1030661;28;20449;-71
2022/04/06 00:24:47;;;;;;;;;;;;;;;6.81;100.00;95186.88;1033231;28;19919;-70
2022/04/06 00:25:18;;;;;;;;;;;;;;;6.77;100.00;95191.03;1030654;28;19906;-71
2022/04/06 00:25:48;;;;;;;;;;;;;;;6.75;100.00;95182.66;1038701;28;20552;-71
2022/04/06 00:26:19;;;;;;;;;;;;;;;6.74;100.00;95188.94;1034710;28;19937;-71
2022/04/06 00:26:49;;;;;;;;;;;;;;;6.74;100.00;95190.72;1038037;28;19910;-71
2022/04/06 00:27:22;;;;;;;;;;;;;;;6.72;100.00;95188.38;1029126;28;19917;-73
2022/04/06 00:27:52;;;;;;;;;;;;;;;6.70;100.00;95190.44;1025623;28;19917;-71
2022/04/06 00:28:23;;;;;;;;;;;;;;;6.71;100.00;95191.25;1026540;28;19922;-72
2022/04/06 00:28:53;;;;;;;;;;;;;;;6.73;100.00;95189.94;1027267;28;19906;-71
2022/04/06 00:29:23;;;;;;;;;;;;;;;6.73;100.00;95195.16;1038481;28;20456;-71
2022/04/06 00:29:54;;;;;;;;;;;;;;;6.74;100.00;95194.16;1038641;28;19916;-73
2022/04/06 00:30:24;;;;;;;;;;;;;;;6.74;100.00;95188.94;1038677;28;20165;-71
2022/04/06 00:30:54;;;;;;;;;;;;;;;6.79;100.00;95185.56;1038584;28;20501;-70
2022/04/06 00:31:25;;;;;;;;;;;;;;;6.81;100.00;95191.31;1034570;28;19914;-72
2022/04/06 00:31:55;;;;;;;;;;;;;;;6.82;100.00;95190.28;1034531;28;19905;-72
2022/04/06 00:32:26;;;;;;;;;;;;;;;6.79;100.00;95188.94;1030502;28;20760;-71
2022/04/06 00:32:59;;;;;;;;;;;;;;;6.83;100.00;95190.00;1026508;28;19911;-70
2022/04/06 00:33:32;;;;;;;;;;;;;;;6.85;100.00;95187.16;1026346;28;19915;-72
2022/04/06 00:34:02;;;;;;;;;;;;;;;6.93;100.00;95184.06;1027757;28;19914;-72
2022/04/06 00:35:28;;;;;;;;;;;;;;;6.90;100.00;95189.00;1037064;28;19929;-70
2022/04/06 00:35:58;;;;;;;;;;;;;;;6.94;100.00;95182.25;1032681;28;19914;-72
2022/04/06 00:36:28;;;;;;;;;;;;;;;6.91;100.00;95183.56;1037775;28;19917;-70
2022/04/06 00:36:59;;;;;;;;;;;;;;;6.89;100.00;95184.84;1037945;28;20134;-72
2022/04/06 00:37:29;;;;;;;;;;;;;;;6.91;100.00;95190.56;1034235;28;19921;-71
2022/04/06 00:38:03;;;;;;;;;;;;;;;6.90;100.00;95179.34;1034547;28;19996;-71
2022/04/06 00:38:34;;;;;;;;;;;;;;;6.90;100.00;95189.00;1026306;28;19938;-70
2022/04/06 00:39:04;;;;;;;;;;;;;;;6.90;100.00;95186.41;1026771;28;19977;-69
2022/04/06 00:39:34;;;;;;;;;;;;;;;6.88;100.00;95186.66;1026885;28;19910;-73
2022/04/06 00:40:05;;;;;;;;;;;;;;;6.84;100.00;95181.16;1030561;28;20290;-71
2022/04/06 00:40:35;;;;;;;;;;;;;;;6.85;100.00;95187.94;1034556;28;20541;-70
2022/04/06 00:41:06;;;;;;;;;;;;;;;6.85;100.00;95187.94;1033118;28;20504;-68
2022/04/06 00:41:38;;;;;;;;;;;;;;;6.90;100.00;95181.19;1024786;28;19964;-70
2022/04/06 00:42:08;;;;;;;;;;;;;;;6.89;100.00;95185.63;1018706;29;19915;-72
2022/04/06 00:42:38;;;;;;;;;;;;;;;6.89;100.00;95192.66;1024256;28;19910;-69
2022/04/06 00:43:10;;;;;;;;;;;;;;;6.88;100.00;95184.06;1030709;28;20602;-70
2022/04/06 00:43:40;;;;;;;;;;;;;;;6.91;100.00;95180.13;1036630;28;20205;-68
2022/04/06 00:44:12;;;;;;;;;;;;;;;6.86;100.00;95178.28;1042483;28;19975;-70
2022/04/06 00:44:42;;;;;;;;;;;;;;;6.88;100.00;95178.06;1038315;28;19917;-70
2022/04/06 00:45:12;;;;;;;;;;;;;;;6.84;100.00;95181.16;1034507;28;19969;-71
2022/04/06 00:45:43;;;;;;;;;;;;;;;6.82;100.00;95182.44;1034538;28;19909;-69
2022/04/06 00:46:13;;;;;;;;;;;;;;;6.82;100.00;95182.44;1037071;28;19917;-70
2022/04/06 00:46:44;;;;;;;;;;;;;;;6.83;100.00;95187.41;1033950;28;20272;-71
2022/04/06 00:47:14;;;;;;;;;;;;;;;6.82;100.00;95178.00;1030273;28;19941;-72
2022/04/06 00:47:44;;;;;;;;;;;;;;;6.83;100.00;95182.19;1026313;28;19997;-72
2022/04/06 00:48:15;;;;;;;;;;;;;;;6.81;100.00;95183.50;1022265;28;19949;-70
2022/04/06 00:48:45;;;;;;;;;;;;;;;6.76;100.00;95183.44;1026533;28;19910;-70
2022/04/06 00:49:15;;;;;;;;;;;;;;;6.73;100.00;95178.75;1030445;28;19990;-71
2022/04/06 00:49:46;;;;;;;;;;;;;;;6.73;100.00;95178.75;1034359;28;19943;-71
2022/04/06 00:50:17;;;;;;;;;;;;;;;6.73;100.00;95184.72;1034278;28;19952;-71
2022/04/06 00:50:47;;;;;;;;;;;;;;;6.73;100.00;95179.50;1034536;28;19921;-72
2022/04/06 00:51:18;;;;;;;;;;;;;;;6.81;100.00;95179.06;1026144;28;19922;-70
2022/04/06 00:51:48;;;;;;;;;;;;;;;6.82;100.00;95183.22;1019834;29;20369;-70
2022/04/06 00:52:18;;;;;;;;;;;;;;;6.79;100.00;95178.50;1022156;29;19918;-69
2022/04/06 00:52:55;;;;;;;;;;;;;;;6.79;100.00;95177.72;1021218;28;19910;-69
2022/04/06 00:53:25;;;;;;;;;;;;;;;6.75;100.00;95177.47;1020121;28;20375;-69
2022/04/06 00:53:55;;;;;;;;;;;;;;;6.78;100.00;95181.38;1023275;28;19917;-70
2022/04/06 00:54:26;;;;;;;;;;;;;;;6.77;100.00;95178.00;1023571;28;20362;-70
2022/04/06 00:54:56;;;;;;;;;;;;;;;6.74;100.00;95180.28;1030559;28;19910;-70
2022/04/06 00:55:28;;;;;;;;;;;;;;;6.72;100.00;95182.38;1026556;28;20038;-70
2022/04/06 00:55:59;;;;;;;;;;;;;;;6.69;100.00;95175.84;1026871;28;20388;-69
2022/04/06 00:56:29;;;;;;;;;;;;;;;6.68;100.00;95181.31;1029137;28;19912;-71
2022/04/06 00:56:59;;;;;;;;;;;;;;;6.67;100.00;95177.91;1025723;28;19948;-72
2022/04/06 00:57:30;;;;;;;;;;;;;;;6.65;100.00;95177.41;1026533;28;19906;-71
2022/04/06 00:58:00;;;;;;;;;;;;;;;6.64;100.00;95175.84;1032169;28;20517;-71
2022/04/06 00:58:30;;;;;;;;;;;;;;;6.67;100.00;95180.50;1034213;28;19916;-70
2022/04/06 00:59:01;;;;;;;;;;;;;;;6.67;100.00;95179.72;1034571;28;19913;-70
2022/04/06 00:59:31;;;;;;;;;;;;;;;6.65;100.00;95171.41;1034377;28;19917;-72
2022/04/06 01:00:02;;;;;;;;;;;;;;;6.69;100.00;95177.69;1034588;28;19910;-71
2022/04/06 01:00:35;;;;;;;;;;;;;;;6.69;100.00;95183.66;1030114;28;19960;-72
2022/04/06 01:01:06;;;;;;;;;;;;;;;6.70;100.00;95180.00;1031342;28;19910;-69
2022/04/06 01:01:36;;;;;;;;;;;;;;;6.70;100.00;95180.00;1035153;28;19914;-70
2022/04/06 01:02:06;;;;;;;;;;;;;;;6.69;100.00;95183.66;1031131;28;19910;-71
2022/04/06 01:02:37;;;;;;;;;;;;;;;6.69;100.00;95181.06;1031068;28;20019;-72
2022/04/06 01:03:07;;;;;;;;;;;;;;;6.71;100.00;95183.44;1031020;28;20373;-72
2022/04/06 01:03:37;;;;;;;;;;;;;;;6.70;100.00;95181.84;1031335;28;20604;-71
2022/04/06 01:04:08;;;;;;;;;;;;;;;6.69;100.00;95186.28;1035301;28;19945;-71
2022/04/06 01:04:39;;;;;;;;;;;;;;;6.69;100.00;95178.47;1037735;28;19913;-70
2022/04/06 01:05:09;;;;;;;;;;;;;;;6.67;100.00;95177.91;1030046;28;20707;-69
2022/04/06 01:05:39;;;;;;;;;;;;;;;6.65;100.00;95180.00;1027260;28;19914;-71
2022/04/06 01:06:10;;;;;;;;;;;;;;;6.65;100.00;95177.41;1027128;28;20402;-68
2022/04/06 01:06:40;;;;;;;;;;;;;;;6.70;100.00;95180.00;1026614;28;19910;-70
2022/04/06 01:07:10;;;;;;;;;;;;;;;6.68;100.00;95174.28;1030841;28;19962;-72
2022/04/06 01:07:41;;;;;;;;;;;;;;;6.68;100.00;95176.13;1031112;28;19910;-72
2022/04/06 01:08:11;;;;;;;;;;;;;;;6.68;100.00;95176.13;1029414;28;20660;-70
2022/04/06 01:08:42;;;;;;;;;;;;;;;6.67;100.00;95175.31;1030584;28;19961;-71
2022/04/06 01:09:13;;;;;;;;;;;;;;;6.70;100.00;95172.19;1031216;28;19914;-70
2022/04/06 01:09:43;;;;;;;;;;;;;;;6.67;100.00;95179.72;1031531;28;20284;-71
2022/04/06 01:10:14;;;;;;;;;;;;;;;6.66;100.00;95172.97;1035209;28;19917;-71
2022/04/06 01:10:44;;;;;;;;;;;;;;;6.66;100.00;95173.75;1039305;28;19920;-71
2022/04/06 01:11:14;;;;;;;;;;;;;;;6.65;100.00;95177.41;1035149;28;19916;-69
2022/04/06 01:11:51;;;;;;;;;;;;;;;6.65;100.00;95177.41;1039371;28;19995;-72
2022/04/06 01:12:22;;;;;;;;;;;;;;;6.64;100.00;95175.03;1039490;28;19940;-70
2022/04/06 01:12:52;;;;;;;;;;;;;;;6.63;100.00;95176.84;1029357;28;20009;-72
2022/04/06 01:13:22;;;;;;;;;;;;;;;6.62;100.00;95177.88;1027194;28;20016;-70
2022/04/06 01:13:53;;;;;;;;;;;;;;;6.64;100.00;95178.44;1026785;28;19914;-70
2022/04/06 01:14:23;;;;;;;;;;;;;;;6.63;100.00;95179.47;1027421;28;19910;-71
2022/04/06 01:14:54;;;;;;;;;;;;;;;6.65;100.00;95176.63;1027302;28;19933;-70
2022/04/06 01:15:24;;;;;;;;;;;;;;;6.63;100.00;95179.47;1028311;28;20459;-70
2022/04/06 01:15:54;;;;;;;;;;;;;;;6.65;100.00;95180.00;1027063;28;19914;-73
2022/04/06 01:16:25;;;;;;;;;;;;;;;6.70;100.00;95179.25;1031136;28;19913;-69
2022/04/06 01:17:06;;;;;;;;;;;;;;;6.67;100.00;95175.31;1026373;28;19917;-70
2022/04/06 01:17:37;;;;;;;;;;;;;;;6.68;100.00;95176.91;1028673;28;20427;-71
2022/04/06 01:18:08;;;;;;;;;;;;;;;6.50;100.00;95148.63;1032723;28;19914;-71
2022/04/06 01:18:39;;;;;;;;;;;;;;;6.68;100.00;95171.69;1032682;28;19906;-72
2022/04/06 01:19:10;;;;;;;;;;;;;;;6.67;100.00;95170.09;1035126;28;19910;-72
2022/04/06 01:19:40;;;;;;;;;;;;;;;6.66;100.00;95172.97;1035258;28;20358;-71
2022/04/06 01:20:11;;;;;;;;;;;;;;;6.64;100.00;95169.81;1035118;28;20569;-72
2022/04/06 01:20:41;;;;;;;;;;;;;;;6.63;100.00;95168.25;1039206;28;19918;-71
2022/04/06 01:21:12;;;;;;;;;;;;;;;6.64;100.00;95172.41;1039002;28;19918;-70
2022/04/06 01:21:42;;;;;;;;;;;;;;;6.63;100.00;95170.84;1035302;28;19926;-69
2022/04/06 01:22:13;;;;;;;;;;;;;;;6.66;100.00;95173.75;1030912;28;19925;-72
2022/04/06 01:22:43;;;;;;;;;;;;;;;6.66;100.00;95175.56;1031214;28;19906;-73
2022/04/06 01:23:14;;;;;;;;;;;;;;;6.64;100.00;95175.84;1031006;28;19944;-71
2022/04/06 01:23:44;;;;;;;;;;;;;;;6.61;100.00;95171.13;1031146;28;19976;-73
2022/04/06 01:24:14;;;;;;;;;;;;;;;6.65;100.00;95172.19;1034773;28;20493;-73
2022/04/06 01:24:45;;;;;;;;;;;;;;;6.66;100.00;95178.19;1037928;28;19910;-71
2022/04/06 01:25:15;;;;;;;;;;;;;;;6.64;100.00;95168.00;1030732;28;20481;-72
2022/04/06 01:25:46;;;;;;;;;;;;;;;6.65;100.00;95176.63;1027056;28;19917;-72
2022/04/06 01:26:16;;;;;;;;;;;;;;;6.62;100.00;95170.06;1027002;28;19907;-71
2022/04/06 01:26:49;;;;;;;;;;;;;;;6.64;100.00;95170.63;1027176;28;19910;-71
2022/04/06 01:27:21;;;;;;;;;;;;;;;6.63;100.00;95174.25;1030025;28;20374;-72
2022/04/06 01:27:51;;;;;;;;;;;;;;;6.64;100.00;95168.00;1030096;28;20771;-71
2022/04/06 01:28:21;;;;;;;;;;;;;;;6.64;100.00;95175.03;1031046;28;19909;-72
2022/04/06 01:28:52;;;;;;;;;;;;;;;6.61;100.00;95177.13;1027441;28;20368;-72
2022/04/06 01:29:22;;;;;;;;;;;;;;;6.65;100.00;95166.97;1035113;28;19956;-72
2022/04/06 01:29:54;;;;;;;;;;;;;;;6.66;100.00;95172.97;1029175;28;19910;-71
2022/04/06 01:30:24;;;;;;;;;;;;;;;6.65;100.00;95168.78;1031189;28;20658;-72
2022/04/06 01:30:54;;;;;;;;;;;;;;;6.63;100.00;95169.03;1035007;28;19913;-71
2022/04/06 01:31:25;;;;;;;;;;;;;;;6.63;100.00;95171.63;1031439;28;19910;-71
2022/04/06 01:31:55;;;;;;;;;;;;;;;6.63;100.00;95169.03;1030949;28;19910;-72
2022/04/06 01:32:26;;;;;;;;;;;;;;;6.64;100.00;95170.63;1028199;28;20343;-71
2022/04/06 01:32:57;;;;;;;;;;;;;;;6.67;100.00;95172.69;1027312;28;20487;-72
2022/04/06 01:33:28;;;;;;;;;;;;;;;6.70;100.00;95174.03;1031554;28;19913;-71
2022/04/06 01:33:58;;;;;;;;;;;;;;;6.68;100.00;95171.69;1034995;28;19909;-71
2022/04/06 01:34:28;;;;;;;;;;;;;;;6.67;100.00;95172.69;1039186;28;19916;-72
2022/04/06 01:35:02;;;;;;;;;;;;;;;6.68;100.00;95174.28;1039389;28;19905;-70
2022/04/06 01:35:38;;;;;;;;;;;;;;;6.67;100.00;95172.69;1039038;28;19952;-71
2022/04/06 01:36:08;;;;;;;;;;;;;;;6.66;100.00;95171.13;1034925;28;19992;-72
2022/04/06 01:36:38;;;;;;;;;;;;;;;6.64;100.00;95170.63;1032813;28;20008;-72
2022/04/06 01:37:09;;;;;;;;;;;;;;;6.64;100.00;95175.03;1034513;28;19917;-71
2022/04/06 01:37:39;;;;;;;;;;;;;;;6.64;100.00;95168.00;1031000;28;20571;-71
2022/04/06 01:38:10;;;;;;;;;;;;;;;6.64;100.00;95164.59;1035028;28;20314;-70
2022/04/06 01:38:40;;;;;;;;;;;;;;;6.63;100.00;95173.47;1035241;28;19913;-71
2022/04/06 01:39:10;;;;;;;;;;;;;;;6.64;100.00;95170.63;1035185;28;20346;-70
2022/04/06 01:39:42;;;;;;;;;;;;;;;6.66;100.00;95168.53;1035232;28;19921;-70
2022/04/06 01:40:12;;;;;;;;;;;;;;;6.68;100.00;95171.69;1035255;28;20441;-70
2022/04/06 01:40:42;;;;;;;;;;;;;;;6.67;100.00;95166.69;1039206;28;19913;-72
2022/04/06 01:41:12;;;;;;;;;;;;;;;6.68;100.00;95173.50;1030851;28;19921;-71
2022/04/06 01:41:43;;;;;;;;;;;;;;;6.66;100.00;95168.53;1031124;28;19914;-74
2022/04/06 01:42:15;;;;;;;;;;;;;;;6.65;100.00;95172.19;1030977;28;19914;-70
2022/04/06 01:42:46;;;;;;;;;;;;;;;6.70;100.00;95168.81;1026824;28;19906;-71
2022/04/06 01:43:17;;;;;;;;;;;;;;;6.70;100.00;95168.81;1027021;28;19914;-72
2022/04/06 01:43:47;;;;;;;;;;;;;;;6.71;100.00;95159.97;1027456;28;19907;-72
2022/04/06 01:44:17;;;;;;;;;;;;;;;6.71;100.00;95163.34;1032211;28;19910;-70
2022/04/06 01:44:48;;;;;;;;;;;;;;;6.69;100.00;95162.03;1035125;28;20437;-70
2022/04/06 01:45:18;;;;;;;;;;;;;;;6.70;100.00;95161.00;1030956;28;19917;-72
2022/04/06 01:45:49;;;;;;;;;;;;;;;6.69;100.00;95164.63;1030995;28;19921;-70
2022/04/06 01:46:19;;;;;;;;;;;;;;;6.72;100.00;95162.31;1030955;28;19956;-71
2022/04/06 01:46:50;;;;;;;;;;;;;;;6.72;100.00;95159.69;1034327;28;19916;-71
2022/04/06 01:47:20;;;;;;;;;;;;;;;6.70;100.00;95153.94;1039168;28;19920;-71
2022/04/06 01:47:50;;;;;;;;;;;;;;;6.71;100.00;95160.75;1038841;28;20767;-73
2022/04/06 01:48:21;;;;;;;;;;;;;;;6.70;100.00;95159.16;1034885;28;19967;-71
2022/04/06 01:52:12;;;;;;;;;;;;;;;6.73;100.00;95148.22;1034861;28;20284;-71
2022/04/06 01:52:43;;;;;;;;;;;;;;;6.78;100.00;95143.06;1034744;28;19914;-70
2022/04/06 01:53:13;;;;;;;;;;;;;;;6.78;100.00;95145.66;1035123;28;20622;-73
2022/04/06 01:53:47;;;;;;;;;;;;;;;6.77;100.00;95144.09;1032641;28;19914;-71
2022/04/06 01:54:18;;;;;;;;;;;;;;;6.79;100.00;95146.44;1031323;28;19917;-72
2022/04/06 01:54:52;;;;;;;;;;;;;;;6.77;100.00;95141.50;1030149;28;19916;-73
2022/04/06 01:55:22;;;;;;;;;;;;;;;6.76;100.00;95137.31;1033087;28;19906;-71
2022/04/06 01:55:56;;;;;;;;;;;;;;;6.74;100.00;95136.78;1036521;28;19905;-73
2022/04/06 01:56:26;;;;;;;;;;;;;;;6.73;100.00;95135.19;1038519;28;19908;-72
2022/04/06 01:56:56;;;;;;;;;;;;;;;6.74;100.00;95138.59;1034667;28;19917;-70
2022/04/06 01:57:27;;;;;;;;;;;;;;;6.73;100.00;95137.03;1035867;28;19902;-70
2022/04/06 01:57:57;;;;;;;;;;;;;;;6.73;100.00;95143.00;1037278;28;19912;-72
2022/04/06 01:58:27;;;;;;;;;;;;;;;6.72;100.00;95144.06;1040587;28;19948;-69
2022/04/06 01:58:58;;;;;;;;;;;;;;;6.72;100.00;95144.06;1040173;28;19917;-69
2022/04/06 01:59:28;;;;;;;;;;;;;;;6.72;100.00;95135.47;1040448;28;20004;-70
2022/04/06 01:59:58;;;;;;;;;;;;;;;6.71;100.00;95133.91;1039984;28;19913;-69
2022/04/06 02:00:29;;;;;;;;;;;;;;;6.72;100.00;95138.84;1040258;28;20362;-71
2022/04/06 02:00:59;;;;;;;;;;;;;;;6.71;100.00;95134.69;1040152;28;19906;-71
2022/04/06 02:01:29;;;;;;;;;;;;;;;6.72;100.00;95131.03;1036156;28;19960;-72
2022/04/06 02:02:03;;;;;;;;;;;;;;;6.77;100.00;95138.88;1036153;28;19960;-72
2022/04/06 02:02:36;;;;;;;;;;;;;;;6.73;100.00;95129.97;1036144;28;20325;-71
2022/04/06 02:03:06;;;;;;;;;;;;;;;6.74;100.00;95134.19;1035930;28;19988;-71
2022/04/06 02:03:37;;;;;;;;;;;;;;;6.76;100.00;95132.09;1036131;28;19916;-69
2022/04/06 02:04:14;;;;;;;;;;;;;;;6.73;100.00;95132.59;1027923;28;20430;-71
2022/04/06 02:04:44;;;;;;;;;;;;;;;6.76;100.00;95126.09;1027427;28;19902;-70
2022/04/06 02:05:17;;;;;;;;;;;;;;;6.77;100.00;95128.47;1030429;28;20403;-70
2022/04/06 02:05:48;;;;;;;;;;;;;;;6.75;100.00;95133.13;1034641;28;20016;-72
2022/04/06 02:06:18;;;;;;;;;;;;;;;6.78;100.00;95131.84;1040215;28;20459;-71
2022/04/06 02:06:48;;;;;;;;;;;;;;;6.76;100.00;95126.88;1039236;28;20386;-71
2022/04/06 02:07:19;;;;;;;;;;;;;;;6.77;100.00;95136.28;1040058;28;19952;-70
2022/04/06 02:07:50;;;;;;;;;;;;;;;6.76;100.00;95131.31;1040043;28;19943;-69
2022/04/06 02:08:21;;;;;;;;;;;;;;;6.75;100.00;95137.56;1040200;28;19995;-69
2022/04/06 02:08:51;;;;;;;;;;;;;;;6.74;100.00;95133.38;1035500;28;19913;-71
2022/04/06 02:09:24;;;;;;;;;;;;;;;6.79;100.00;95136.00;1035876;28;19921;-71
2022/04/06 02:09:59;;;;;;;;;;;;;;;6.78;100.00;95129.25;1028725;28;20407;-71
2022/04/06 02:10:30;;;;;;;;;;;;;;;6.78;100.00;95130.03;1033669;28;19921;-73
2022/04/06 02:11:00;;;;;;;;;;;;;;;6.79;100.00;95136.78;1032067;28;19905;-70
2022/04/06 02:11:31;;;;;;;;;;;;;;;6.81;100.00;95139.94;1032687;28;19954;-70
2022/04/06 02:12:01;;;;;;;;;;;;;;;6.76;100.00;95134.69;1036160;28;19901;-69
2022/04/06 02:12:32;;;;;;;;;;;;;;;6.73;100.00;95132.59;1035809;28;20182;-70
2022/04/06 02:13:02;;;;;;;;;;;;;;;6.70;100.00;95135.69;1035751;28;19913;-70
2022/04/06 02:13:32;;;;;;;;;;;;;;;6.69;100.00;95141.97;1039904;28;20477;-70
2022/04/06 02:14:03;;;;;;;;;;;;;;;6.69;100.00;95141.97;1040014;28;19909;-71
2022/04/06 02:14:33;;;;;;;;;;;;;;;6.69;100.00;95139.34;1035701;28;19936;-70
2022/04/06 02:15:04;;;;;;;;;;;;;;;6.65;100.00;95134.91;1027974;28;19906;-70
2022/04/06 02:15:37;;;;;;;;;;;;;;;6.66;100.00;95142.47;1023137;28;19906;-71
2022/04/06 02:16:07;;;;;;;;;;;;;;;6.66;100.00;95142.47;1023875;29;19909;-71
2022/04/06 02:16:37;;;;;;;;;;;;;;;6.67;100.00;95143.25;1026179;28;19917;-68
2022/04/06 02:17:08;;;;;;;;;;;;;;;6.65;100.00;95140.91;1031437;28;19914;-72
2022/04/06 02:17:38;;;;;;;;;;;;;;;6.67;100.00;95138.03;1036073;28;19909;-70
2022/04/06 02:18:09;;;;;;;;;;;;;;;6.66;100.00;95146.88;1039989;28;19908;-70
2022/04/06 02:18:39;;;;;;;;;;;;;;;6.64;100.00;95144.56;1035734;28;20405;-71
2022/04/06 02:19:09;;;;;;;;;;;;;;;6.64;100.00;95138.53;1040007;28;19913;-71
2022/04/06 02:19:40;;;;;;;;;;;;;;;6.64;100.00;95139.34;1039845;28;19917;-71
2022/04/06 02:20:10;;;;;;;;;;;;;;;6.64;100.00;95139.34;1039960;28;19912;-71
2022/04/06 02:20:44;;;;;;;;;;;;;;;6.63;100.00;95137.75;1039911;28;19988;-72
2022/04/06 02:21:14;;;;;;;;;;;;;;;6.61;100.00;95140.63;1039879;28;20370;-71
2022/04/06 02:21:44;;;;;;;;;;;;;;;6.62;100.00;95136.19;1035803;28;19917;-71
2022/04/06 02:22:15;;;;;;;;;;;;;;;6.60;100.00;95130.44;1031533;28;19918;-71
2022/04/06 02:22:45;;;;;;;;;;;;;;;6.61;100.00;95139.84;1027934;28;19926;-70
2022/04/06 02:23:16;;;;;;;;;;;;;;;6.67;100.00;95125.78;1027815;28;19914;-72
2022/04/06 02:23:46;;;;;;;;;;;;;;;6.69;100.00;95131.53;1027703;28;20375;-72
2022/04/06 02:24:18;;;;;;;;;;;;;;;6.67;100.00;95136.19;1031837;28;19970;-70
2022/04/06 02:24:48;;;;;;;;;;;;;;;6.69;100.00;95126.31;1026368;28;19918;-72
2022/04/06 02:25:20;;;;;;;;;;;;;;;6.72;100.00;95131.03;1028525;28;20279;-71
2022/04/06 02:25:52;;;;;;;;;;;;;;;6.71;100.00;95133.91;1030878;28;19920;-73
2022/04/06 02:26:22;;;;;;;;;;;;;;;6.70;100.00;95129.69;1028201;28;19930;-72
2022/04/06 02:26:52;;;;;;;;;;;;;;;6.69;100.00;95131.53;1031615;28;20419;-71
2022/04/06 02:27:23;;;;;;;;;;;;;;;6.72;100.00;95125.81;1039873;28;19921;-71
2022/04/06 02:27:53;;;;;;;;;;;;;;;6.73;100.00;95126.59;1035579;28;19918;-73
2022/04/06 02:28:23;;;;;;;;;;;;;;;6.73;100.00;95126.59;1036036;28;20305;-73
2022/04/06 02:28:54;;;;;;;;;;;;;;;6.76;100.00;95131.31;1035436;28;19912;-70
2022/04/06 02:29:25;;;;;;;;;;;;;;;6.76;100.00;95132.09;1031930;28;19952;-72
2022/04/06 02:29:55;;;;;;;;;;;;;;;6.79;100.00;95125.59;1031907;28;20456;-72
2022/04/06 02:30:25;;;;;;;;;;;;;;;6.76;100.00;95132.09;1031806;28;19902;-72
2022/04/06 02:30:56;;;;;;;;;;;;;;;6.75;100.00;95129.75;1031694;28;20490;-72
2022/04/06 02:31:29;;;;;;;;;;;;;;;6.80;100.00;95124.53;1031788;28;19945;-69
2022/04/06 02:31:59;;;;;;;;;;;;;;;6.79;100.00;95121.16;1032187;28;19956;-70
2022/04/06 02:32:30;;;;;;;;;;;;;;;6.80;100.00;95125.31;1031481;28;20391;-70
2022/04/06 02:33:00;;;;;;;;;;;;;;;6.82;100.00;95128.47;1028017;28;19903;-71
2022/04/06 02:33:30;;;;;;;;;;;;;;;6.81;100.00;95129.53;1027842;28;19996;-73
2022/04/06 02:34:01;;;;;;;;;;;;;;;6.80;100.00;95132.38;1031778;28;19913;-72
2022/04/06 02:34:31;;;;;;;;;;;;;;;6.79;100.00;95128.97;1031504;28;19909;-71
2022/04/06 02:35:01;;;;;;;;;;;;;;;6.80;100.00;95122.72;1031864;28;19902;-71
2022/04/06 02:35:32;;;;;;;;;;;;;;;6.80;100.00;95120.09;1031680;28;19910;-72
2022/04/06 02:36:03;;;;;;;;;;;;;;;6.82;100.00;95125.88;1031711;28;19953;-70
2022/04/06 02:36:33;;;;;;;;;;;;;;;6.83;100.00;95132.63;1036723;28;19940;-72
2022/04/06 02:37:04;;;;;;;;;;;;;;;6.81;100.00;95121.69;1039287;28;20320;-71
2022/04/06 02:37:34;;;;;;;;;;;;;;;6.80;100.00;95125.31;1035630;28;19906;-69
2022/04/06 02:38:04;;;;;;;;;;;;;;;6.81;100.00;95121.69;1035960;28;19905;-71
2022/04/06 02:38:38;;;;;;;;;;;;;;;6.80;100.00;95121.94;1035456;28;20274;-71
2022/04/06 02:39:09;;;;;;;;;;;;;;;6.82;100.00;95120.66;1036183;28;19916;-71
2022/04/06 02:39:40;;;;;;;;;;;;;;;6.85;100.00;95119.38;1039968;28;19908;-69
2022/04/06 02:40:11;;;;;;;;;;;;;;;6.83;100.00;95119.59;1036432;28;19952;-70
2022/04/06 02:40:41;;;;;;;;;;;;;;;6.82;100.00;95120.66;1035620;28;20028;-71
2022/04/06 02:41:12;;;;;;;;;;;;;;;6.83;100.00;95117.00;1031508;28;19917;-71
2022/04/06 02:41:42;;;;;;;;;;;;;;;6.84;100.00;95115.97;1031871;28;20517;-72
2022/04/06 02:42:12;;;;;;;;;;;;;;;6.84;100.00;95120.38;1027637;28;19920;-70
2022/04/06 02:42:43;;;;;;;;;;;;;;;6.84;100.00;95118.59;1035595;28;19921;-71
2022/04/06 02:43:13;;;;;;;;;;;;;;;6.84;100.00;95109.94;1039826;28;20410;-70
2022/04/06 02:43:43;;;;;;;;;;;;;;;6.81;100.00;95116.47;1035988;28;20410;-72
2022/04/06 02:44:15;;;;;;;;;;;;;;;6.81;100.00;95116.47;1039774;28;19901;-70
2022/04/06 02:44:45;;;;;;;;;;;;;;;6.84;100.00;95115.97;1035784;28;19910;-71